Terminal Aerodrome Forecast
Issued by NWS

Home | Current Version | Previous Version | Text Only | Print | Product List | Glossary On
Versions: 1 2 3 4 5 6 7 8 9 10 11 12 13 14
000
FTUS45 KGGW 041859 AAA
TAFSDY
TAF AMD
KSDY 041859Z 0419/0518 02014KT P6SM BKN025
     FM050200 01014KT P6SM VCSH OVC050
     FM050800 36013KT P6SM -SHRA OVC040 PROB30 0508/0512 P6SM -TSRA
      OVC030CB
     FM051200 04009KT P6SM -RA OVC005
      AMD LTD TO CLD VIS AND WIND=

USA.gov is the U.S. government's official web portal to all federal, state and local government web resources and services.